Time;durP1;ratioP1;P1;durP2;ratioP2;P2;SDS_P1;SDS_P2;PMS_P1;PMS_P2;Temp;Humidity;BMP_temperature;BMP_pressure;BME280_temperature;BME280_humidity;BME280_pressure;Samples;Min_cycle;Max_cycle;Signal;HPM_P1;HPM_P2
2022/06/05 00:01:29;;;;;;;;;;;11.10;99.90;;;;;;5034690;28;19921;-74
2022/06/05 00:04:08;;;;;;;;;;;11.10;99.90;;;;;;5034515;28;20270;-75
2022/06/05 00:06:40;;;;;;;;;;;11.00;99.90;;;;;;5034374;28;20376;-74
2022/06/05 00:09:13;;;;;;;;;;;11.00;99.90;;;;;;5034498;28;19921;-72
2022/06/05 00:11:47;;;;;;;;;;;11.00;99.90;;;;;;5034478;28;19968;-74
2022/06/05 00:14:14;;;;;;;;;;;11.00;99.90;;;;;;5034079;28;20426;-74
2022/06/05 00:16:39;;;;;;;;;;;11.00;99.90;;;;;;5034380;28;20285;-75
2022/06/05 00:19:05;;;;;;;;;;;11.00;99.90;;;;;;5016847;28;19921;-75
2022/06/05 00:21:30;;;;;;;;;;;11.10;99.90;;;;;;5034376;28;20337;-74
2022/06/05 00:23:56;;;;;;;;;;;11.00;99.90;;;;;;5016532;28;19921;-75
2022/06/05 00:26:40;;;;;;;;;;;11.00;99.90;;;;;;5034777;28;19920;-74
2022/06/05 00:29:15;;;;;;;;;;;11.00;99.90;;;;;;5032973;28;19921;-74
2022/06/05 00:31:40;;;;;;;;;;;10.90;99.90;;;;;;5033025;28;19925;-74
2022/06/05 00:34:06;;;;;;;;;;;10.90;99.90;;;;;;5034683;28;19928;-75
2022/06/05 00:36:44;;;;;;;;;;;10.90;99.90;;;;;;5032702;28;19921;-76
2022/06/05 00:39:13;;;;;;;;;;;10.90;99.90;;;;;;5034012;28;19921;-75
2022/06/05 00:41:58;;;;;;;;;;;10.90;99.90;;;;;;5035168;28;19967;-75
2022/06/05 00:44:29;;;;;;;;;;;10.90;99.90;;;;;;5034680;28;19921;-74
2022/06/05 00:46:55;;;;;;;;;;;10.90;99.90;;;;;;5034135;28;19921;-74
2022/06/05 00:49:21;;;;;;;;;;;10.90;99.90;;;;;;5047288;28;19932;-72
2022/06/05 00:51:46;;;;;;;;;;;10.90;99.90;;;;;;5039085;28;19977;-71
2022/06/05 00:54:12;;;;;;;;;;;10.90;99.90;;;;;;5055745;28;19905;-73
2022/06/05 00:56:37;;;;;;;;;;;10.90;99.90;;;;;;5054288;28;19928;-71
2022/06/05 00:59:03;;;;;;;;;;;10.90;99.90;;;;;;5033451;28;19921;-75
2022/06/05 01:01:29;;;;;;;;;;;10.90;99.90;;;;;;5032693;28;20288;-75
2022/06/05 01:04:00;;;;;;;;;;;10.90;99.90;;;;;;5032735;28;20032;-73
2022/06/05 01:06:26;;;;;;;;;;;10.90;99.90;;;;;;5033186;28;20285;-75
2022/06/05 01:08:51;;;;;;;;;;;11.00;99.90;;;;;;5033948;28;19921;-75
2022/06/05 01:11:18;;;;;;;;;;;11.00;99.90;;;;;;5034073;28;20357;-75
2022/06/05 01:13:43;;;;;;;;;;;11.00;99.90;;;;;;5016181;28;19924;-75
2022/06/05 01:16:31;;;;;;;;;;;11.00;99.90;;;;;;5033755;28;19921;-75
2022/06/05 01:18:59;;;;;;;;;;;11.00;99.90;;;;;;5032692;28;20365;-75
2022/06/05 01:21:34;;;;;;;;;;;10.90;99.90;;;;;;5037638;28;19921;-75
2022/06/05 01:24:14;;;;;;;;;;;10.90;99.90;;;;;;5038130;28;19921;-75
2022/06/05 01:26:40;;;;;;;;;;;10.90;99.90;;;;;;5037536;28;20019;-75
2022/06/05 01:29:07;;;;;;;;;;;10.90;99.90;;;;;;5036245;28;19971;-75
2022/06/05 01:31:35;;;;;;;;;;;11.00;99.90;;;;;;5036249;28;19970;-75
2022/06/05 01:34:10;;;;;;;;;;;11.00;99.90;;;;;;5036762;28;19925;-76
2022/06/05 01:36:42;;;;;;;;;;;11.00;99.90;;;;;;5037585;28;20335;-75
2022/06/05 01:39:19;;;;;;;;;;;11.00;99.90;;;;;;5019707;28;20019;-75
2022/06/05 01:41:49;;;;;;;;;;;11.00;99.90;;;;;;5020174;28;19921;-75
2022/06/05 01:44:19;;;;;;;;;;;11.00;99.90;;;;;;5035918;28;20015;-75
2022/06/05 01:46:45;;;;;;;;;;;11.00;99.90;;;;;;5036581;28;19928;-75
2022/06/05 01:49:13;;;;;;;;;;;11.00;99.90;;;;;;5037092;28;19925;-75
2022/06/05 01:51:44;;;;;;;;;;;11.00;99.90;;;;;;5037879;28;20285;-75
2022/06/05 01:54:11;;;;;;;;;;;11.00;99.90;;;;;;5036655;28;19939;-75
2022/06/05 01:56:38;;;;;;;;;;;11.00;99.90;;;;;;5035872;28;19921;-76
2022/06/05 01:59:11;;;;;;;;;;;10.90;99.90;;;;;;5035701;28;19925;-75
2022/06/05 02:01:37;;;;;;;;;;;11.00;99.90;;;;;;5035700;28;20380;-75
2022/06/05 02:04:16;;;;;;;;;;;11.00;99.90;;;;;;5036220;28;19921;-75
2022/06/05 02:06:47;;;;;;;;;;;11.00;99.90;;;;;;5035658;28;19928;-75
2022/06/05 02:09:13;;;;;;;;;;;11.00;99.90;;;;;;5035606;28;19921;-75
2022/06/05 02:11:39;;;;;;;;;;;11.00;99.90;;;;;;5037470;28;20433;-75
2022/06/05 02:14:08;;;;;;;;;;;10.90;99.90;;;;;;5035442;28;19927;-75
2022/06/05 02:16:34;;;;;;;;;;;11.00;99.90;;;;;;5036548;28;19921;-75
2022/06/05 02:19:01;;;;;;;;;;;11.00;99.90;;;;;;5035248;28;19928;-74
2022/06/05 02:21:27;;;;;;;;;;;11.00;99.90;;;;;;5018794;28;20384;-75
2022/06/05 02:23:52;;;;;;;;;;;11.00;99.90;;;;;;5019788;28;19922;-75
2022/06/05 02:26:18;;;;;;;;;;;11.00;99.90;;;;;;5035956;28;20050;-75
2022/06/05 02:28:43;;;;;;;;;;;11.00;99.90;;;;;;5035193;28;20016;-75
2022/06/05 02:31:17;;;;;;;;;;;11.00;99.90;;;;;;5017573;28;20026;-74
2022/06/05 02:33:42;;;;;;;;;;;11.00;99.90;;;;;;5035200;28;20288;-75
2022/06/05 02:36:27;;;;;;;;;;;11.00;99.90;;;;;;5036586;28;19928;-75
2022/06/05 02:39:01;;;;;;;;;;;11.00;99.90;;;;;;5020266;28;19921;-75
2022/06/05 02:41:27;;;;;;;;;;;11.00;99.90;;;;;;5036575;28;20310;-73
2022/06/05 02:44:29;;;;;;;;;;;11.00;99.90;;;;;;5037514;28;19921;-74
2022/06/05 02:46:58;;;;;;;;;;;11.00;99.90;;;;;;5046423;28;20448;-69
2022/06/05 02:49:34;;;;;;;;;;;11.00;99.90;;;;;;5041807;28;19960;-70
2022/06/05 02:52:01;;;;;;;;;;;11.00;99.90;;;;;;5058103;28;19921;-69
2022/06/05 02:54:27;;;;;;;;;;;11.10;99.90;;;;;;5054612;28;19928;-72
2022/06/05 02:56:53;;;;;;;;;;;11.00;99.90;;;;;;5039908;28;20015;-73
2022/06/05 02:59:19;;;;;;;;;;;11.00;99.90;;;;;;5035976;28;20349;-74
2022/06/05 03:04:29;;;;;;;;;;;11.00;99.90;;;;;;5036116;28;19920;-74
2022/06/05 03:06:54;;;;;;;;;;;11.00;99.90;;;;;;5036223;28;20353;-74
2022/06/05 03:09:20;;;;;;;;;;;11.10;99.90;;;;;;5035674;28;20293;-74
2022/06/05 03:11:45;;;;;;;;;;;11.00;99.90;;;;;;5034340;28;20281;-74
2022/06/05 03:14:11;;;;;;;;;;;11.00;99.90;;;;;;5035466;28;19921;-74
2022/06/05 03:16:36;;;;;;;;;;;11.00;99.90;;;;;;5034841;28;20375;-74
2022/06/05 03:19:02;;;;;;;;;;;11.00;99.90;;;;;;5035948;28;20273;-74
2022/06/05 03:21:31;;;;;;;;;;;11.00;99.90;;;;;;5035678;28;20369;-74
2022/06/05 03:23:56;;;;;;;;;;;11.00;99.90;;;;;;5035244;28;19937;-74
2022/06/05 03:26:22;;;;;;;;;;;11.00;99.90;;;;;;5036413;28;19986;-74
2022/06/05 03:28:48;;;;;;;;;;;11.10;99.90;;;;;;5035273;28;19920;-75
2022/06/05 03:31:13;;;;;;;;;;;11.00;99.90;;;;;;5035247;28;19921;-74
2022/06/05 03:33:39;;;;;;;;;;;11.10;99.90;;;;;;5035102;28;19921;-74
2022/06/05 03:36:14;;;;;;;;;;;11.10;99.90;;;;;;5034853;28;19921;-74
2022/06/05 03:38:39;;;;;;;;;;;11.10;99.90;;;;;;5034893;28;19975;-74
2022/06/05 03:41:05;;;;;;;;;;;11.20;99.90;;;;;;5034970;28;20327;-74
2022/06/05 03:43:30;;;;;;;;;;;11.20;99.90;;;;;;5034795;28;19968;-74
2022/06/05 03:46:03;;;;;;;;;;;11.20;99.90;;;;;;5034828;28;19928;-73
2022/06/05 03:48:28;;;;;;;;;;;11.20;99.90;;;;;;5033902;28;20411;-74
2022/06/05 03:50:54;;;;;;;;;;;11.30;99.90;;;;;;5035103;28;19921;-74
2022/06/05 03:53:19;;;;;;;;;;;11.30;99.90;;;;;;5034843;28;19921;-74
2022/06/05 03:55:45;;;;;;;;;;;11.30;99.90;;;;;;5034704;28;19921;-74
2022/06/05 03:58:10;;;;;;;;;;;11.30;99.90;;;;;;5035001;28;19932;-74
2022/06/05 04:00:36;;;;;;;;;;;11.40;99.90;;;;;;5034593;28;19928;-74
2022/06/05 04:03:01;;;;;;;;;;;11.40;99.90;;;;;;5035522;28;20048;-76
2022/06/05 04:05:27;;;;;;;;;;;11.40;99.90;;;;;;5034503;28;19928;-74
2022/06/05 04:07:52;;;;;;;;;;;11.50;99.90;;;;;;5034550;28;20285;-75
2022/06/05 04:10:19;;;;;;;;;;;11.50;99.90;;;;;;5034516;28;19928;-75
2022/06/05 04:12:46;;;;;;;;;;;11.60;99.90;;;;;;5034485;28;20019;-75
2022/06/05 04:15:12;;;;;;;;;;;11.60;99.90;;;;;;5033227;28;19928;-76
2022/06/05 04:17:38;;;;;;;;;;;11.70;99.90;;;;;;5034378;28;19921;-75
2022/06/05 04:20:04;;;;;;;;;;;11.70;99.90;;;;;;5017078;28;19921;-77
2022/06/05 04:22:29;;;;;;;;;;;11.80;99.90;;;;;;5034301;28;19974;-76
2022/06/05 04:24:55;;;;;;;;;;;11.80;99.90;;;;;;5034272;28;19995;-76
2022/06/05 04:27:20;;;;;;;;;;;11.90;99.90;;;;;;5034362;28;19924;-76
2022/06/05 04:29:46;;;;;;;;;;;12.00;99.90;;;;;;5034310;28;19925;-75
2022/06/05 04:32:11;;;;;;;;;;;12.10;99.90;;;;;;5038618;28;19921;-76
2022/06/05 04:34:37;;;;;;;;;;;12.10;99.90;;;;;;5038364;28;19928;-75
2022/06/05 04:37:03;;;;;;;;;;;12.20;99.90;;;;;;5037769;28;19920;-76
2022/06/05 04:39:28;;;;;;;;;;;12.30;99.90;;;;;;5041064;28;19961;-72
2022/06/05 04:41:54;;;;;;;;;;;12.30;99.90;;;;;;5058412;28;19996;-70
2022/06/05 04:44:20;;;;;;;;;;;12.40;99.90;;;;;;5041783;28;19932;-75
2022/06/05 04:46:45;;;;;;;;;;;12.40;99.90;;;;;;5058485;28;19904;-76
2022/06/05 04:49:11;;;;;;;;;;;12.50;99.90;;;;;;5049381;28;20347;-75
2022/06/05 04:51:37;;;;;;;;;;;12.50;99.90;;;;;;5016956;28;19979;-75
2022/06/05 04:54:02;;;;;;;;;;;12.50;99.90;;;;;;5017412;28;19921;-75
2022/06/05 04:56:28;;;;;;;;;;;12.50;99.90;;;;;;5037853;28;19921;-76
2022/06/05 04:58:54;;;;;;;;;;;12.60;99.90;;;;;;5038059;28;19921;-76
2022/06/05 05:01:21;;;;;;;;;;;12.60;99.90;;;;;;5036867;28;19921;-76
2022/06/05 05:03:46;;;;;;;;;;;12.60;99.90;;;;;;5036804;28;20048;-76
2022/06/05 05:06:12;;;;;;;;;;;12.70;99.90;;;;;;5021212;28;20414;-75
2022/06/05 05:08:37;;;;;;;;;;;12.80;99.90;;;;;;5038429;28;19972;-76
2022/06/05 05:11:03;;;;;;;;;;;12.80;99.90;;;;;;5020311;28;20369;-76
2022/06/05 05:13:28;;;;;;;;;;;12.90;99.90;;;;;;5038010;28;19920;-78
2022/06/05 05:15:55;;;;;;;;;;;13.00;99.90;;;;;;5037769;28;19957;-77
2022/06/05 05:18:21;;;;;;;;;;;13.00;99.90;;;;;;5036723;28;20281;-77
2022/06/05 05:20:47;;;;;;;;;;;13.10;99.90;;;;;;5020028;28;19921;-75
2022/06/05 05:23:12;;;;;;;;;;;13.10;99.90;;;;;;5020086;28;19921;-76
2022/06/05 05:25:38;;;;;;;;;;;13.20;99.90;;;;;;5019660;28;19928;-76
2022/06/05 05:28:06;;;;;;;;;;;13.20;99.90;;;;;;5037674;28;19921;-76
2022/06/05 05:30:32;;;;;;;;;;;13.30;99.90;;;;;;5037652;28;20281;-76
2022/06/05 05:32:58;;;;;;;;;;;13.40;99.90;;;;;;5019969;28;19978;-76
2022/06/05 05:35:23;;;;;;;;;;;13.40;99.90;;;;;;5020295;28;20341;-76
2022/06/05 05:37:49;;;;;;;;;;;13.50;99.90;;;;;;5036939;28;20023;-78
2022/06/05 05:42:59;;;;;;;;;;;13.60;99.90;;;;;;5037153;28;19967;-74
2022/06/05 05:45:24;;;;;;;;;;;13.70;99.90;;;;;;5035887;28;19925;-74
2022/06/05 05:47:50;;;;;;;;;;;13.80;99.90;;;;;;5037104;28;19925;-75
2022/06/05 05:50:15;;;;;;;;;;;13.80;99.90;;;;;;5037002;28;19921;-74
2022/06/05 05:52:42;;;;;;;;;;;13.90;99.90;;;;;;5036656;28;19921;-75
2022/06/05 05:55:10;;;;;;;;;;;13.90;99.90;;;;;;5037332;28;19921;-75
2022/06/05 05:57:35;;;;;;;;;;;14.00;99.90;;;;;;5036566;28;20444;-75
2022/06/05 06:00:01;;;;;;;;;;;14.10;99.90;;;;;;5037454;28;20015;-76
2022/06/05 06:02:26;;;;;;;;;;;14.10;99.90;;;;;;5036998;28;19921;-74
2022/06/05 06:04:52;;;;;;;;;;;14.20;99.90;;;;;;5037405;28;19921;-74
2022/06/05 06:07:18;;;;;;;;;;;14.30;99.90;;;;;;5037526;28;19921;-75
2022/06/05 06:09:44;;;;;;;;;;;14.40;99.90;;;;;;5036702;28;20011;-75
2022/06/05 06:12:10;;;;;;;;;;;14.40;99.90;;;;;;5020143;28;20075;-75
2022/06/05 06:14:36;;;;;;;;;;;14.50;99.90;;;;;;5035210;28;20034;-74
2022/06/05 06:17:01;;;;;;;;;;;14.60;99.90;;;;;;5036452;28;20446;-75
2022/06/05 06:19:27;;;;;;;;;;;14.70;99.90;;;;;;5036750;28;19995;-74
2022/06/05 06:21:52;;;;;;;;;;;14.80;99.90;;;;;;5036760;28;19927;-75
2022/06/05 06:24:18;;;;;;;;;;;14.80;99.90;;;;;;5037370;28;20282;-75
2022/06/05 06:26:43;;;;;;;;;;;14.90;99.90;;;;;;5034487;28;19960;-75
2022/06/05 06:29:09;;;;;;;;;;;15.00;99.90;;;;;;5030839;28;19921;-76
2022/06/05 06:31:35;;;;;;;;;;;15.10;99.90;;;;;;5042595;28;19921;-75
2022/06/05 06:34:01;;;;;;;;;;;15.10;99.90;;;;;;5056284;28;19925;-76
2022/06/05 06:36:27;;;;;;;;;;;15.20;99.90;;;;;;5060301;28;19985;-73
2022/06/05 06:38:52;;;;;;;;;;;15.30;99.90;;;;;;5058953;28;19905;-77
2022/06/05 06:41:18;;;;;;;;;;;15.40;99.90;;;;;;5046275;28;19921;-74
2022/06/05 06:43:44;;;;;;;;;;;15.50;99.90;;;;;;5036459;28;20384;-74
2022/06/05 06:46:09;;;;;;;;;;;15.60;99.90;;;;;;5037023;28;19993;-73
2022/06/05 06:48:35;;;;;;;;;;;15.60;99.90;;;;;;5036084;28;19984;-74
2022/06/05 06:51:01;;;;;;;;;;;15.70;99.90;;;;;;5035500;28;19921;-74
2022/06/05 06:53:27;;;;;;;;;;;15.80;99.90;;;;;;5036467;28;19921;-74
2022/06/05 06:55:52;;;;;;;;;;;15.80;99.90;;;;;;5036849;28;19921;-75
2022/06/05 06:58:18;;;;;;;;;;;15.90;99.90;;;;;;5036377;28;19974;-74
2022/06/05 07:00:43;;;;;;;;;;;16.00;99.90;;;;;;5035888;28;19921;-74
2022/06/05 07:03:09;;;;;;;;;;;16.10;99.90;;;;;;5035666;28;19927;-73
2022/06/05 07:05:34;;;;;;;;;;;16.20;99.90;;;;;;5035927;28;19928;-74
2022/06/05 07:08:00;;;;;;;;;;;16.20;99.90;;;;;;5035792;28;19932;-74
2022/06/05 07:10:26;;;;;;;;;;;16.30;99.90;;;;;;5035973;28;20269;-78
2022/06/05 07:12:51;;;;;;;;;;;16.30;99.90;;;;;;5035798;28;19921;-75
2022/06/05 07:15:17;;;;;;;;;;;16.40;99.90;;;;;;5035776;28;19928;-76
2022/06/05 07:17:42;;;;;;;;;;;16.50;99.90;;;;;;5033838;28;19921;-76
2022/06/05 07:20:08;;;;;;;;;;;16.50;99.90;;;;;;5035574;28;19921;-76
2022/06/05 07:22:34;;;;;;;;;;;16.60;99.90;;;;;;5035759;28;19921;-76
2022/06/05 07:24:59;;;;;;;;;;;16.70;99.90;;;;;;5035418;28;19921;-76
2022/06/05 07:27:25;;;;;;;;;;;16.80;99.90;;;;;;5035520;28;20039;-76
2022/06/05 07:29:51;;;;;;;;;;;16.90;99.90;;;;;;5035107;28;19923;-75
2022/06/05 07:32:17;;;;;;;;;;;17.00;99.90;;;;;;5035424;28;19975;-73
2022/06/05 07:34:42;;;;;;;;;;;17.10;99.90;;;;;;5035986;28;19921;-73
2022/06/05 07:37:08;;;;;;;;;;;17.10;99.90;;;;;;5035168;28;19925;-73
2022/06/05 07:39:33;;;;;;;;;;;17.20;99.90;;;;;;5035103;28;19927;-77
2022/06/05 07:41:59;;;;;;;;;;;17.30;99.90;;;;;;5035836;28;20308;-74
2022/06/05 07:44:25;;;;;;;;;;;17.40;99.90;;;;;;5001488;28;20007;-74
2022/06/05 07:46:51;;;;;;;;;;;17.60;99.90;;;;;;5035848;28;19936;-74
2022/06/05 07:49:16;;;;;;;;;;;17.70;99.90;;;;;;5035044;28;20362;-74
2022/06/05 07:54:26;;;;;;;;;;;17.90;99.90;;;;;;5034952;28;19921;-72
2022/06/05 07:56:52;;;;;;;;;;;17.90;99.90;;;;;;5035015;28;19966;-74
2022/06/05 07:59:18;;;;;;;;;;;18.00;99.90;;;;;;5034960;28;20427;-74
2022/06/05 08:01:44;;;;;;;;;;;18.10;99.90;;;;;;5033648;28;19927;-74
2022/06/05 08:04:10;;;;;;;;;;;18.20;99.90;;;;;;5034660;28;20308;-74
2022/06/05 08:06:35;;;;;;;;;;;18.30;99.90;;;;;;5035538;28;19921;-74
2022/06/05 08:09:01;;;;;;;;;;;18.30;99.90;;;;;;5034489;28;19921;-81
2022/06/05 08:11:27;;;;;;;;;;;18.40;99.80;;;;;;5016921;28;20020;-74
2022/06/05 08:13:53;;;;;;;;;;;18.50;99.90;;;;;;5034615;28;19976;-74
2022/06/05 08:16:18;;;;;;;;;;;18.50;99.90;;;;;;5035239;28;19921;-75
2022/06/05 08:18:44;;;;;;;;;;;18.60;99.90;;;;;;5034608;28;19928;-75
2022/06/05 08:21:09;;;;;;;;;;;18.70;99.90;;;;;;5042534;28;19925;-74
2022/06/05 08:23:35;;;;;;;;;;;18.80;99.90;;;;;;5027319;28;20422;-74
2022/06/05 08:26:01;;;;;;;;;;;19.00;99.90;;;;;;5023985;28;19921;-74
2022/06/05 08:28:27;;;;;;;;;;;19.00;99.80;;;;;;5043858;28;19951;-75
2022/06/05 08:30:53;;;;;;;;;;;19.10;99.30;;;;;;5059015;28;19905;-76
2022/06/05 08:33:18;;;;;;;;;;;19.20;98.90;;;;;;5058193;28;19905;-76
2022/06/05 08:35:45;;;;;;;;;;;19.20;99.00;;;;;;5058102;28;19921;-75
2022/06/05 08:43:46;;;;;;;;;;;19.40;99.00;;;;;;5033970;28;19928;-75
2022/06/05 08:46:15;;;;;;;;;;;19.50;98.90;;;;;;5033164;28;19921;-76
2022/06/05 08:48:47;;;;;;;;;;;19.50;98.70;;;;;;5034595;28;19925;-75
2022/06/05 08:51:19;;;;;;;;;;;19.60;98.40;;;;;;5032807;28;19921;-75
2022/06/05 08:53:47;;;;;;;;;;;19.70;98.30;;;;;;5016426;28;20019;-74
2022/06/05 08:56:18;;;;;;;;;;;19.80;98.30;;;;;;5032779;28;19921;-75
2022/06/05 08:58:48;;;;;;;;;;;19.90;98.10;;;;;;5016430;28;19928;-75
2022/06/05 09:01:16;;;;;;;;;;;19.90;97.90;;;;;;5033723;28;19967;-75
2022/06/05 09:03:44;;;;;;;;;;;20.00;97.90;;;;;;5034254;28;19921;-75
2022/06/05 09:06:11;;;;;;;;;;;20.00;97.70;;;;;;5034129;28;19928;-79
2022/06/05 09:08:38;;;;;;;;;;;20.10;97.20;;;;;;5032695;28;19921;-76
2022/06/05 09:11:05;;;;;;;;;;;20.10;97.30;;;;;;5032674;28;19928;-76
2022/06/05 09:13:36;;;;;;;;;;;20.10;96.80;;;;;;5033801;28;19932;-75
2022/06/05 09:16:03;;;;;;;;;;;20.10;96.60;;;;;;5034197;28;20047;-76
2022/06/05 09:18:29;;;;;;;;;;;20.20;96.70;;;;;;5032868;28;19928;-75
2022/06/05 09:20:55;;;;;;;;;;;20.20;95.80;;;;;;5033770;28;20301;-75
2022/06/05 09:23:20;;;;;;;;;;;20.30;96.50;;;;;;5016343;28;19929;-75
2022/06/05 09:26:02;;;;;;;;;;;20.30;96.80;;;;;;5033452;28;19921;-75
2022/06/05 09:28:35;;;;;;;;;;;20.40;96.70;;;;;;5034099;28;19928;-75
2022/06/05 09:31:00;;;;;;;;;;;20.50;95.30;;;;;;5034226;28;19925;-76
2022/06/05 09:33:27;;;;;;;;;;;20.60;96.50;;;;;;5033609;28;19943;-75
2022/06/05 09:35:54;;;;;;;;;;;20.70;96.50;;;;;;5032682;28;19921;-75
2022/06/05 09:38:22;;;;;;;;;;;20.90;96.50;;;;;;5032436;28;19921;-75
2022/06/05 09:40:54;;;;;;;;;;;21.00;96.10;;;;;;5036369;28;19924;-75
2022/06/05 09:43:38;;;;;;;;;;;21.10;95.70;;;;;;5035974;28;19928;-76
2022/06/05 09:46:22;;;;;;;;;;;21.10;94.90;;;;;;5036636;28;19921;-74
2022/06/05 09:48:48;;;;;;;;;;;21.30;95.30;;;;;;5037696;28;19972;-76
2022/06/05 09:51:14;;;;;;;;;;;21.30;94.10;;;;;;5038100;28;20250;-76
2022/06/05 09:53:42;;;;;;;;;;;21.40;94.70;;;;;;5037117;28;20215;-76
2022/06/05 09:56:07;;;;;;;;;;;21.40;94.80;;;;;;5020645;28;20333;-74
2022/06/05 09:58:45;;;;;;;;;;;21.50;95.20;;;;;;5037377;28;19921;-76
2022/06/05 10:01:28;;;;;;;;;;;21.50;93.00;;;;;;5037352;28;20257;-76
2022/06/05 10:03:54;;;;;;;;;;;21.50;94.60;;;;;;5037943;28;19928;-81
2022/06/05 10:06:39;;;;;;;;;;;21.50;94.40;;;;;;5036092;28;19924;-77
2022/06/05 10:09:17;;;;;;;;;;;21.60;93.90;;;;;;5037054;28;19921;-77
2022/06/05 10:11:52;;;;;;;;;;;21.70;94.70;;;;;;5037685;28;19940;-76
2022/06/05 10:14:36;;;;;;;;;;;21.80;94.50;;;;;;5036995;28;19921;-76
2022/06/05 10:17:20;;;;;;;;;;;21.80;93.90;;;;;;5037054;28;20329;-77
2022/06/05 10:19:48;;;;;;;;;;;21.90;94.20;;;;;;5037010;28;19971;-77
2022/06/05 10:22:27;;;;;;;;;;;22.00;94.00;;;;;;5020285;28;20003;-75
2022/06/05 10:24:52;;;;;;;;;;;22.10;93.90;;;;;;5035399;28;20361;-75
2022/06/05 10:27:18;;;;;;;;;;;22.10;93.70;;;;;;5052136;28;19912;-76
2022/06/05 10:29:50;;;;;;;;;;;22.10;93.20;;;;;;5055391;28;20300;-76
2022/06/05 10:32:40;;;;;;;;;;;22.20;93.60;;;;;;5050346;28;19925;-75
2022/06/05 10:35:12;;;;;;;;;;;22.20;93.20;;;;;;5023287;28;19971;-77
2022/06/05 10:37:44;;;;;;;;;;;22.20;93.30;;;;;;5060861;28;19988;-76
2022/06/05 10:40:15;;;;;;;;;;;22.30;93.20;;;;;;5060322;28;19905;-76
2022/06/05 10:42:46;;;;;;;;;;;22.30;93.30;;;;;;5060343;28;19925;-76
2022/06/05 10:45:30;;;;;;;;;;;22.30;92.60;;;;;;5060869;28;19904;-77
2022/06/05 10:47:56;;;;;;;;;;;22.30;93.30;;;;;;5044721;28;20011;-76
2022/06/05 10:50:23;;;;;;;;;;;22.40;92.90;;;;;;5036803;28;19974;-75
2022/06/05 10:52:54;;;;;;;;;;;22.40;92.50;;;;;;5035469;28;19928;-75
2022/06/05 10:55:38;;;;;;;;;;;22.40;91.80;;;;;;5036479;28;19925;-75
2022/06/05 10:58:11;;;;;;;;;;;22.40;92.00;;;;;;5036348;28;20273;-75
2022/06/05 11:01:03;;;;;;;;;;;22.40;92.40;;;;;;5019488;28;20403;-75
2022/06/05 11:03:44;;;;;;;;;;;22.40;92.10;;;;;;5015314;28;19920;-75
2022/06/05 11:06:28;;;;;;;;;;;22.40;92.10;;;;;;5035315;28;19932;-76
2022/06/05 11:09:12;;;;;;;;;;;22.40;91.80;;;;;;5036639;28;20369;-75
2022/06/05 11:14:28;;;;;;;;;;;22.40;92.40;;;;;;5035687;28;20024;-75
2022/06/05 11:17:02;;;;;;;;;;;22.40;92.30;;;;;;5002340;28;20365;-83
2022/06/05 11:19:39;;;;;;;;;;;22.40;92.40;;;;;;5036021;28;19925;-74
2022/06/05 11:22:09;;;;;;;;;;;22.50;92.30;;;;;;5035663;28;19921;-75
2022/06/05 11:24:40;;;;;;;;;;;22.50;92.90;;;;;;5034260;28;19960;-76
2022/06/05 11:27:08;;;;;;;;;;;22.50;92.70;;;;;;5035466;28;19928;-75
2022/06/05 11:29:41;;;;;;;;;;;22.60;92.80;;;;;;5034955;28;20361;-75
2022/06/05 11:32:12;;;;;;;;;;;22.60;92.90;;;;;;5036973;28;19975;-75
2022/06/05 11:34:49;;;;;;;;;;;22.60;92.30;;;;;;5036213;28;19921;-75
2022/06/05 11:37:36;;;;;;;;;;;22.60;92.40;;;;;;5036416;28;19921;-75
2022/06/05 11:40:11;;;;;;;;;;;22.60;91.80;;;;;;5036523;28;20042;-76
2022/06/05 11:43:01;;;;;;;;;;;22.60;91.90;;;;;;5037403;28;19964;-74
2022/06/05 11:45:45;;;;;;;;;;;22.70;91.70;;;;;;5035812;28;19921;-74
2022/06/05 11:48:13;;;;;;;;;;;22.60;91.10;;;;;;5019777;28;19921;-75
2022/06/05 11:50:44;;;;;;;;;;;22.60;90.70;;;;;;5019599;28;19928;-75
2022/06/05 11:53:15;;;;;;;;;;;22.70;91.70;;;;;;5035495;28;19931;-74
2022/06/05 11:55:43;;;;;;;;;;;22.70;91.20;;;;;;5035005;28;19921;-74
2022/06/05 11:58:12;;;;;;;;;;;22.70;91.80;;;;;;5018951;28;19970;-75
2022/06/05 12:00:39;;;;;;;;;;;22.80;90.90;;;;;;5018343;28;19921;-74
2022/06/05 12:03:16;;;;;;;;;;;22.80;91.40;;;;;;5035225;28;19921;-74
2022/06/05 12:05:43;;;;;;;;;;;22.90;91.00;;;;;;5037373;28;20288;-75
2022/06/05 12:08:12;;;;;;;;;;;22.90;91.60;;;;;;5038340;28;20017;-75
2022/06/05 12:10:48;;;;;;;;;;;23.00;90.90;;;;;;5037783;28;19979;-76
2022/06/05 12:13:30;;;;;;;;;;;23.00;91.70;;;;;;5038902;28;20258;-75
2022/06/05 12:15:57;;;;;;;;;;;23.00;91.70;;;;;;5004037;28;19920;-75
2022/06/05 12:18:49;;;;;;;;;;;23.10;91.90;;;;;;5037712;28;19925;-75
2022/06/05 12:21:23;;;;;;;;;;;23.10;91.10;;;;;;5035604;28;19921;-75
2022/06/05 12:23:50;;;;;;;;;;;23.20;92.00;;;;;;5035573;28;19927;-74
2022/06/05 12:26:37;;;;;;;;;;;23.20;91.60;;;;;;5036703;28;19921;-76
2022/06/05 12:29:09;;;;;;;;;;;23.20;91.30;;;;;;5036112;28;19924;-75
2022/06/05 12:31:38;;;;;;;;;;;23.20;90.60;;;;;;5034995;28;19927;-75
2022/06/05 12:34:03;;;;;;;;;;;23.30;90.70;;;;;;5035126;28;19967;-75
2022/06/05 12:36:33;;;;;;;;;;;23.30;89.40;;;;;;5036117;28;19924;-74
2022/06/05 12:39:03;;;;;;;;;;;23.30;89.50;;;;;;5018510;28;19975;-75
2022/06/05 12:41:38;;;;;;;;;;;23.30;90.20;;;;;;5036338;28;19987;-75
2022/06/05 12:44:15;;;;;;;;;;;23.20;90.00;;;;;;5035943;28;19925;-76
2022/06/05 12:46:43;;;;;;;;;;;23.20;89.10;;;;;;5035466;28;19921;-75
2022/06/05 12:49:29;;;;;;;;;;;23.30;89.60;;;;;;5035310;28;19928;-75
2022/06/05 12:52:27;;;;;;;;;;;23.20;88.90;;;;;;5047894;28;19921;-75
2022/06/05 12:54:56;;;;;;;;;;;23.20;90.20;;;;;;5013463;28;19921;-75
2022/06/05 12:57:23;;;;;;;;;;;23.10;89.30;;;;;;5044477;28;20356;-74
2022/06/05 12:59:52;;;;;;;;;;;23.10;90.20;;;;;;5022025;28;19928;-74
2022/06/05 13:02:17;;;;;;;;;;;23.10;90.10;;;;;;5056793;28;19905;-77
2022/06/05 13:04:48;;;;;;;;;;;23.10;90.40;;;;;;5041584;28;19905;-76
2022/06/05 13:07:21;;;;;;;;;;;23.10;90.40;;;;;;5057856;28;19905;-76
2022/06/05 13:09:48;;;;;;;;;;;23.00;90.50;;;;;;5056311;28;19976;-83
2022/06/05 13:12:19;;;;;;;;;;;23.00;90.70;;;;;;5045025;28;19921;-75
2022/06/05 13:14:48;;;;;;;;;;;22.90;90.60;;;;;;5036489;28;20008;-79
2022/06/05 13:17:32;;;;;;;;;;;22.90;90.50;;;;;;5039467;28;20016;-78
2022/06/05 13:20:02;;;;;;;;;;;22.90;87.80;;;;;;5037980;28;20423;-79
2022/06/05 13:22:35;;;;;;;;;;;22.80;89.90;;;;;;5038171;28;19960;-78
2022/06/05 13:25:10;;;;;;;;;;;22.80;90.20;;;;;;5038302;28;19927;-83
2022/06/05 13:27:55;;;;;;;;;;;22.80;89.90;;;;;;5039018;28;19930;-79
2022/06/05 13:30:21;;;;;;;;;;;22.80;90.20;;;;;;5038967;28;19974;-80
2022/06/05 13:32:48;;;;;;;;;;;22.80;89.70;;;;;;5036946;28;19921;-78
2022/06/05 13:35:22;;;;;;;;;;;22.90;89.90;;;;;;5037756;28;20012;-78
2022/06/05 13:38:04;;;;;;;;;;;23.00;89.90;;;;;;5020604;28;19921;-77
2022/06/05 13:40:45;;;;;;;;;;;23.00;90.00;;;;;;5038283;28;19925;-78
2022/06/05 13:43:19;;;;;;;;;;;23.10;89.70;;;;;;5036376;28;19928;-78
2022/06/05 13:45:44;;;;;;;;;;;23.20;89.10;;;;;;5036504;28;20020;-78
2022/06/05 13:48:14;;;;;;;;;;;23.20;89.90;;;;;;5038041;28;20364;-78
2022/06/05 13:50:49;;;;;;;;;;;23.30;89.20;;;;;;5036763;28;19925;-80
2022/06/05 13:53:14;;;;;;;;;;;23.40;87.60;;;;;;5038086;28;19975;-76
2022/06/05 13:55:53;;;;;;;;;;;23.50;89.40;;;;;;5038188;28;20333;-76
2022/06/05 13:58:37;;;;;;;;;;;23.50;87.80;;;;;;5036362;28;20373;-85
2022/06/05 14:01:21;;;;;;;;;;;23.50;86.60;;;;;;5036895;28;19928;-76
2022/06/05 14:03:48;;;;;;;;;;;23.50;84.90;;;;;;5038144;28;20007;-76
2022/06/05 14:06:17;;;;;;;;;;;23.60;87.20;;;;;;5036160;28;19921;-76
2022/06/05 14:08:57;;;;;;;;;;;23.60;86.90;;;;;;5037228;28;19921;-76
2022/06/05 14:11:29;;;;;;;;;;;23.60;86.50;;;;;;5037851;28;20260;-76
2022/06/05 14:13:55;;;;;;;;;;;23.60;86.70;;;;;;5036905;28;19921;-86
2022/06/05 14:16:27;;;;;;;;;;;23.60;86.10;;;;;;5037226;28;19924;-76
2022/06/05 14:18:57;;;;;;;;;;;23.60;84.50;;;;;;5036885;28;19921;-76
2022/06/05 14:21:25;;;;;;;;;;;23.60;86.00;;;;;;5037076;28;19921;-76
2022/06/05 14:23:51;;;;;;;;;;;23.50;84.70;;;;;;5035910;28;19928;-76
2022/06/05 14:26:17;;;;;;;;;;;23.40;85.80;;;;;;5034143;28;19921;-76
2022/06/05 14:28:44;;;;;;;;;;;23.40;85.40;;;;;;5035526;28;19921;-76
2022/06/05 14:31:13;;;;;;;;;;;23.30;84.80;;;;;;5035354;28;19931;-76
2022/06/05 14:33:41;;;;;;;;;;;23.30;86.40;;;;;;5034549;28;19927;-77
2022/06/05 14:36:06;;;;;;;;;;;23.30;86.30;;;;;;5034405;28;20375;-76
2022/06/05 14:38:40;;;;;;;;;;;23.30;86.40;;;;;;5034536;28;20369;-76
2022/06/05 14:41:16;;;;;;;;;;;23.30;84.70;;;;;;5034379;28;19921;-76
2022/06/05 14:43:45;;;;;;;;;;;23.30;86.70;;;;;;5034622;28;19921;-76
2022/06/05 14:46:29;;;;;;;;;;;23.20;85.80;;;;;;5035640;28;19921;-76